Time;durP1;ratioP1;P1;durP2;ratioP2;P2;SDS_P1;SDS_P2;PMS_P1;PMS_P2;Temp;Humidity;BMP_temperature;BMP_pressure;BME280_temperature;BME280_humidity;BME280_pressure;Samples;Min_cycle;Max_cycle;Signal;HPM_P1;HPM_P2
2021/12/18 00:02:20;;;;;;;13.43;11.53;;;;;;;;;;4985386;28;20286;-58
2021/12/18 00:04:46;;;;;;;15.47;12.37;;;;;;;;;;5001471;28;20199;-57
2021/12/18 00:07:13;;;;;;;17.63;13.17;;;;;;;;;;4983234;28;20538;-57
2021/12/18 00:09:40;;;;;;;15.27;11.27;;;;;;;;;;4990590;28;20213;-58
2021/12/18 00:12:07;;;;;;;15.77;11.23;;;;;;;;;;4984800;28;20189;-58
2021/12/18 00:14:33;;;;;;;14.10;11.57;;;;;;;;;;4998639;28;20183;-57
2021/12/18 00:17:03;;;;;;;14.83;11.80;;;;;;;;;;4999040;28;20270;-58
2021/12/18 00:19:30;;;;;;;14.57;11.77;;;;;;;;;;4997188;28;20235;-58
2021/12/18 00:21:56;;;;;;;13.43;10.90;;;;;;;;;;4983263;28;20189;-58
2021/12/18 00:24:24;;;;;;;14.60;11.60;;;;;;;;;;5000236;28;20194;-58
2021/12/18 00:26:51;;;;;;;14.83;12.07;;;;;;;;;;4995376;28;20197;-57
2021/12/18 00:29:18;;;;;;;14.43;10.90;;;;;;;;;;4998203;28;20265;-57
2021/12/18 00:31:44;;;;;;;16.27;11.20;;;;;;;;;;4982242;28;20190;-57
2021/12/18 00:34:11;;;;;;;14.83;11.17;;;;;;;;;;4984570;28;20182;-58
2021/12/18 00:36:37;;;;;;;15.57;11.43;;;;;;;;;;4983531;28;20182;-57
2021/12/18 00:39:04;;;;;;;14.63;11.90;;;;;;;;;;4996409;28;20191;-57
2021/12/18 00:44:03;;;;;;;13.00;10.67;;;;;;;;;;5001142;28;20190;-58
2021/12/18 00:46:34;;;;;;;13.73;10.50;;;;;;;;;;4991163;28;20182;-58
2021/12/18 00:49:01;;;;;;;14.40;11.10;;;;;;;;;;4998321;28;20595;-58
2021/12/18 00:51:27;;;;;;;14.80;11.13;;;;;;;;;;5000919;28;20186;-59
2021/12/18 00:53:54;;;;;;;14.70;11.43;;;;;;;;;;4965236;28;20281;-59
2021/12/18 00:56:22;;;;;;;13.13;10.53;;;;;;;;;;4982705;28;20756;-58
2021/12/18 00:58:49;;;;;;;14.37;11.60;;;;;;;;;;4981859;28;20186;-59
2021/12/18 01:01:16;;;;;;;13.13;10.57;;;;;;;;;;5000322;28;20277;-58
2021/12/18 01:03:44;;;;;;;13.90;11.33;;;;;;;;;;4967223;28;20191;-59
2021/12/18 01:06:10;;;;;;;13.97;11.03;;;;;;;;;;4987690;28;20595;-58
2021/12/18 01:08:37;;;;;;;16.97;12.63;;;;;;;;;;4999739;28;20550;-59
2021/12/18 01:11:30;;;;;;;15.20;10.70;;;;;;;;;;5000985;28;20216;-58
2021/12/18 01:14:25;;;;;;;14.67;11.13;;;;;;;;;;5000049;28;20240;-59
2021/12/18 01:22:42;;;;;;;17.47;12.13;;;;;;;;;;4992141;28;20738;-57
2021/12/18 01:25:08;;;;;;;18.13;12.63;;;;;;;;;;5000897;28;20298;-58
2021/12/18 01:27:34;;;;;;;16.43;11.70;;;;;;;;;;4983104;28;20780;-58
2021/12/18 01:30:01;;;;;;;17.57;12.27;;;;;;;;;;4998873;28;20682;-58
2021/12/18 01:32:29;;;;;;;17.47;13.13;;;;;;;;;;4991347;28;20175;-58
2021/12/18 01:34:55;;;;;;;18.10;12.90;;;;;;;;;;4998765;28;20737;-58
2021/12/18 01:37:21;;;;;;;16.97;12.17;;;;;;;;;;4981759;28;20415;-58
2021/12/18 01:39:53;;;;;;;17.13;12.37;;;;;;;;;;4982157;28;20868;-62
2021/12/18 01:53:23;;;;;;;21.13;14.73;;;;;;;;;;5000707;28;20320;-58
2021/12/18 01:55:55;;;;;;;20.10;13.70;;;;;;;;;;4999976;28;20218;-58
2021/12/18 01:58:24;;;;;;;21.73;15.13;;;;;;;;;;5003358;28;20182;-58
2021/12/18 02:00:52;;;;;;;21.57;13.50;;;;;;;;;;4996944;28;20642;-58
2021/12/18 02:03:19;;;;;;;20.10;14.33;;;;;;;;;;4989202;28;20302;-58
2021/12/18 02:05:47;;;;;;;20.50;14.17;;;;;;;;;;4996604;28;20178;-58
2021/12/18 02:08:13;;;;;;;21.27;13.50;;;;;;;;;;4995562;28;20174;-58
2021/12/18 02:10:46;;;;;;;21.10;15.17;;;;;;;;;;5014687;28;20667;-58
2021/12/18 02:13:40;;;;;;;23.17;15.23;;;;;;;;;;5009221;28;21782;-58
2021/12/18 02:21:37;;;;;;;24.67;15.37;;;;;;;;;;5009075;28;20227;-58
2021/12/18 02:24:03;;;;;;;24.30;16.60;;;;;;;;;;4994738;28;20272;-58
2021/12/18 02:26:29;;;;;;;30.17;15.17;;;;;;;;;;5015643;28;20183;-58
2021/12/18 02:28:58;;;;;;;26.33;16.27;;;;;;;;;;5013581;28;20260;-59
2021/12/18 02:31:25;;;;;;;24.47;16.23;;;;;;;;;;4977340;28;20187;-58
2021/12/18 02:33:57;;;;;;;24.20;16.13;;;;;;;;;;5013878;28;20181;-58
2021/12/18 02:36:25;;;;;;;25.13;16.57;;;;;;;;;;5012485;28;20167;-58
2021/12/18 02:41:39;;;;;;;24.80;15.67;;;;;;;;;;5013637;28;20188;-58
2021/12/18 02:44:07;;;;;;;25.90;17.77;;;;;;;;;;4995389;28;20181;-58
2021/12/18 02:46:34;;;;;;;29.47;17.63;;;;;;;;;;5010021;28;20258;-58
2021/12/18 02:49:08;;;;;;;23.67;15.77;;;;;;;;;;4995912;28;20202;-58
2021/12/18 02:51:34;;;;;;;28.63;17.50;;;;;;;;;;4978445;28;20766;-57
2021/12/18 02:54:01;;;;;;;26.80;16.70;;;;;;;;;;5009473;28;20182;-58
2021/12/18 02:56:27;;;;;;;23.77;16.70;;;;;;;;;;4991861;28;20218;-58
2021/12/18 02:58:59;;;;;;;31.53;16.00;;;;;;;;;;4990304;28;20565;-57
2021/12/18 03:01:26;;;;;;;29.00;18.17;;;;;;;;;;4993007;28;20250;-57
2021/12/18 03:03:55;;;;;;;25.90;16.33;;;;;;;;;;5001026;28;20188;-58
2021/12/18 03:27:16;;;;;;;24.93;14.47;;;;;;;;;;5001281;28;20233;-58
2021/12/18 03:29:42;;;;;;;23.77;15.50;;;;;;;;;;5001015;28;20234;-58
2021/12/18 03:32:09;;;;;;;20.17;14.37;;;;;;;;;;4992247;28;20312;-58
2021/12/18 03:34:35;;;;;;;20.50;14.93;;;;;;;;;;4995572;28;20461;-57
2021/12/18 03:37:02;;;;;;;22.40;15.53;;;;;;;;;;5001556;28;20638;-58
2021/12/18 03:39:28;;;;;;;20.60;14.87;;;;;;;;;;4998859;28;20190;-58
2021/12/18 03:41:54;;;;;;;22.23;14.80;;;;;;;;;;5001367;28;20201;-57
2021/12/18 03:44:21;;;;;;;19.70;13.47;;;;;;;;;;5000618;28;20193;-58
2021/12/18 03:46:48;;;;;;;22.97;14.70;;;;;;;;;;4991036;28;20190;-57
2021/12/18 03:49:14;;;;;;;21.88;17.27;;;;;;;;;;4982979;28;20530;-58
2021/12/18 03:51:41;;;;;;;20.60;15.13;;;;;;;;;;5000312;28;20174;-57
2021/12/18 03:54:07;;;;;;;17.33;13.93;;;;;;;;;;4993781;28;20523;-57
2021/12/18 03:56:33;;;;;;;18.33;13.87;;;;;;;;;;4998346;28;20265;-57
2021/12/18 03:59:00;;;;;;;21.27;13.20;;;;;;;;;;4985764;28;20538;-57
2021/12/18 04:01:30;;;;;;;19.10;14.03;;;;;;;;;;4992437;28;20181;-57
2021/12/18 04:03:57;;;;;;;17.20;13.50;;;;;;;;;;4984395;28;20680;-58
2021/12/18 04:06:23;;;;;;;19.73;13.13;;;;;;;;;;5000597;28;20190;-57
2021/12/18 04:08:49;;;;;;;18.87;14.20;;;;;;;;;;5000192;28;20718;-57
2021/12/18 04:11:16;;;;;;;19.33;14.33;;;;;;;;;;4996046;28;20632;-57
2021/12/18 04:13:45;;;;;;;21.23;13.80;;;;;;;;;;4993843;28;20737;-58
2021/12/18 04:16:11;;;;;;;20.37;14.33;;;;;;;;;;4992737;28;20233;-57
2021/12/18 04:18:38;;;;;;;20.13;14.30;;;;;;;;;;4999669;28;20252;-58
2021/12/18 04:21:04;;;;;;;20.70;13.57;;;;;;;;;;5000374;28;20590;-58
2021/12/18 04:23:30;;;;;;;21.03;14.40;;;;;;;;;;4990832;28;20183;-58
2021/12/18 04:26:00;;;;;;;18.53;13.37;;;;;;;;;;4999218;28;20190;-57
2021/12/18 04:28:27;;;;;;;20.50;14.57;;;;;;;;;;4982616;28;20621;-57
2021/12/18 04:30:54;;;;;;;20.97;14.00;;;;;;;;;;4990333;28;20669;-58
2021/12/18 04:33:20;;;;;;;18.93;13.97;;;;;;;;;;4983712;28;20177;-57
2021/12/18 04:35:47;;;;;;;22.93;15.00;;;;;;;;;;4992156;28;20183;-57
2021/12/18 04:38:13;;;;;;;24.57;14.73;;;;;;;;;;5000147;28;20222;-57
2021/12/18 04:40:41;;;;;;;18.43;12.77;;;;;;;;;;4991261;28;20182;-57
2021/12/18 04:43:08;;;;;;;20.03;13.83;;;;;;;;;;4995740;28;20324;-58
2021/12/18 04:45:34;;;;;;;17.93;13.83;;;;;;;;;;4967722;28;20174;-58
2021/12/18 04:48:00;;;;;;;20.17;14.30;;;;;;;;;;4996348;28;20178;-57
2021/12/18 04:50:27;;;;;;;19.87;13.87;;;;;;;;;;4983666;28;20206;-57
2021/12/18 04:52:54;;;;;;;19.97;12.93;;;;;;;;;;4983451;28;20673;-58
2021/12/18 04:55:21;;;;;;;21.33;14.83;;;;;;;;;;4995932;28;20253;-57
2021/12/18 04:57:49;;;;;;;21.20;14.07;;;;;;;;;;5000658;28;20241;-57
2021/12/18 05:00:20;;;;;;;18.80;12.87;;;;;;;;;;4997763;28;20340;-58
2021/12/18 05:02:49;;;;;;;18.23;13.23;;;;;;;;;;4993639;28;20515;-58
2021/12/18 05:05:16;;;;;;;18.17;13.17;;;;;;;;;;4984700;28;20193;-57
2021/12/18 05:07:43;;;;;;;21.13;13.97;;;;;;;;;;4997730;28;20189;-57
2021/12/18 05:10:10;;;;;;;19.63;13.47;;;;;;;;;;4999731;28;20197;-57
2021/12/18 05:12:37;;;;;;;19.20;14.03;;;;;;;;;;4983619;28;20174;-58
2021/12/18 05:15:07;;;;;;;19.50;13.33;;;;;;;;;;4999325;28;20237;-57
2021/12/18 05:17:33;;;;;;;18.47;12.60;;;;;;;;;;5001027;28;20260;-58
2021/12/18 05:20:00;;;;;;;20.60;13.73;;;;;;;;;;4994038;28;20182;-58
2021/12/18 05:22:26;;;;;;;19.27;12.60;;;;;;;;;;4993230;28;20990;-58
2021/12/18 05:24:53;;;;;;;21.13;14.07;;;;;;;;;;4991470;28;20182;-58
2021/12/18 05:27:19;;;;;;;18.03;13.57;;;;;;;;;;4982001;28;20700;-58
2021/12/18 05:29:45;;;;;;;18.77;13.13;;;;;;;;;;4989555;28;20195;-58
2021/12/18 05:32:12;;;;;;;18.27;12.77;;;;;;;;;;4984814;28;20186;-58
2021/12/18 05:34:40;;;;;;;18.87;12.10;;;;;;;;;;4994881;28;20286;-58
2021/12/18 05:37:18;;;;;;;17.70;11.70;;;;;;;;;;5002973;28;20684;-58
2021/12/18 05:39:44;;;;;;;16.37;11.93;;;;;;;;;;4987524;28;20707;-58
2021/12/18 05:42:11;;;;;;;17.70;12.90;;;;;;;;;;4988685;28;20190;-58
2021/12/18 05:44:37;;;;;;;20.87;13.47;;;;;;;;;;5000371;28;20187;-57
2021/12/18 05:47:04;;;;;;;20.17;13.00;;;;;;;;;;4984111;28;20210;-58
2021/12/18 05:49:31;;;;;;;18.27;11.80;;;;;;;;;;4989699;28;20203;-58
2021/12/18 05:51:57;;;;;;;16.87;12.07;;;;;;;;;;4994785;28;20190;-57
2021/12/18 05:54:23;;;;;;;17.80;11.60;;;;;;;;;;4998011;28;20256;-57
2021/12/18 05:56:50;;;;;;;18.27;12.63;;;;;;;;;;5011320;28;20692;-58
2021/12/18 05:59:16;;;;;;;16.50;10.67;;;;;;;;;;5023020;28;20185;-57
2021/12/18 06:01:42;;;;;;;17.20;12.27;;;;;;;;;;5021200;28;20375;-58
2021/12/18 06:04:15;;;;;;;18.03;12.07;;;;;;;;;;5022942;28;20253;-58
2021/12/18 06:06:41;;;;;;;18.53;12.47;;;;;;;;;;5018928;28;20641;-58
2021/12/18 06:09:09;;;;;;;18.13;12.30;;;;;;;;;;5022823;28;20240;-58
2021/12/18 06:11:40;;;;;;;15.53;11.67;;;;;;;;;;5021251;28;20173;-57
2021/12/18 06:14:07;;;;;;;18.93;12.03;;;;;;;;;;5006220;28;20177;-58
2021/12/18 06:16:33;;;;;;;18.70;12.37;;;;;;;;;;5010696;28;20189;-58
2021/12/18 06:18:59;;;;;;;18.63;12.33;;;;;;;;;;5013739;28;20192;-58
2021/12/18 06:21:26;;;;;;;20.90;13.10;;;;;;;;;;5004387;28;20186;-58
2021/12/18 06:23:53;;;;;;;17.87;11.83;;;;;;;;;;5023247;28;20185;-58
2021/12/18 06:26:20;;;;;;;18.30;11.97;;;;;;;;;;5005800;28;20178;-58
2021/12/18 06:28:48;;;;;;;17.17;11.57;;;;;;;;;;5023070;28;20206;-59
2021/12/18 06:31:15;;;;;;;16.73;11.80;;;;;;;;;;5011626;28;20182;-58
2021/12/18 06:33:41;;;;;;;19.23;12.30;;;;;;;;;;5024264;28;20185;-58
2021/12/18 06:36:07;;;;;;;18.13;12.17;;;;;;;;;;5006656;28;20182;-58
2021/12/18 06:38:33;;;;;;;19.03;11.77;;;;;;;;;;4984388;28;20192;-59
2021/12/18 06:41:00;;;;;;;18.83;12.23;;;;;;;;;;5012478;28;20174;-59
2021/12/18 06:43:26;;;;;;;17.60;11.93;;;;;;;;;;5020227;28;20213;-59
2021/12/18 06:45:52;;;;;;;18.47;11.47;;;;;;;;;;5021362;28;20217;-59
2021/12/18 06:48:21;;;;;;;17.17;11.23;;;;;;;;;;5023782;28;20190;-59
2021/12/18 06:50:50;;;;;;;18.60;11.83;;;;;;;;;;5012600;28;20210;-59
2021/12/18 06:53:20;;;;;;;17.57;11.47;;;;;;;;;;5015544;28;20598;-59
2021/12/18 06:55:46;;;;;;;17.87;12.17;;;;;;;;;;5033915;28;20227;-59
2021/12/18 06:58:13;;;;;;;14.93;11.27;;;;;;;;;;4983961;28;20567;-59
2021/12/18 07:00:39;;;;;;;17.03;11.73;;;;;;;;;;4991400;28;20190;-58
2021/12/18 07:03:09;;;;;;;17.63;12.27;;;;;;;;;;4998507;28;20598;-59
2021/12/18 07:05:36;;;;;;;17.07;11.47;;;;;;;;;;4999837;28;20840;-59
2021/12/18 07:08:02;;;;;;;20.23;12.43;;;;;;;;;;5001237;28;20240;-59
2021/12/18 07:10:31;;;;;;;18.50;12.03;;;;;;;;;;4981685;28;20339;-59
2021/12/18 07:12:58;;;;;;;17.30;11.67;;;;;;;;;;4992617;28;20191;-58
2021/12/18 07:15:28;;;;;;;16.17;11.07;;;;;;;;;;4999022;28;20189;-58
2021/12/18 07:17:55;;;;;;;16.47;11.90;;;;;;;;;;4998174;28;20189;-58
2021/12/18 07:20:21;;;;;;;17.40;11.60;;;;;;;;;;4998173;28;20194;-58
2021/12/18 07:22:47;;;;;;;19.00;12.20;;;;;;;;;;4984428;28;20190;-58
2021/12/18 07:25:14;;;;;;;17.13;11.23;;;;;;;;;;4983640;28;20217;-59
2021/12/18 07:27:40;;;;;;;17.57;12.50;;;;;;;;;;4990974;28;20195;-59
2021/12/18 07:30:11;;;;;;;18.07;11.67;;;;;;;;;;4994504;28;20225;-59
2021/12/18 07:32:37;;;;;;;19.60;12.60;;;;;;;;;;4997515;28;20621;-58
2021/12/18 07:35:04;;;;;;;16.97;11.27;;;;;;;;;;5002612;28;20190;-59
2021/12/18 07:37:31;;;;;;;17.33;10.53;;;;;;;;;;5001151;28;20593;-59
2021/12/18 07:39:57;;;;;;;18.50;11.73;;;;;;;;;;4992084;28;20225;-59
2021/12/18 07:42:23;;;;;;;18.20;11.17;;;;;;;;;;5000758;28;20187;-58
2021/12/18 07:44:50;;;;;;;18.43;11.60;;;;;;;;;;4997792;28;20190;-58
2021/12/18 07:47:20;;;;;;;16.80;11.33;;;;;;;;;;4992782;28;20190;-59
2021/12/18 07:49:46;;;;;;;19.53;12.73;;;;;;;;;;4998730;28;20452;-59
2021/12/18 07:52:13;;;;;;;18.87;12.07;;;;;;;;;;4992481;28;20623;-59
2021/12/18 07:54:39;;;;;;;18.20;10.50;;;;;;;;;;4991589;28;20187;-59
2021/12/18 07:57:05;;;;;;;20.27;12.60;;;;;;;;;;5001825;28;20308;-59
2021/12/18 07:59:32;;;;;;;20.60;12.40;;;;;;;;;;4995958;28;20190;-64
2021/12/18 08:02:00;;;;;;;18.33;12.37;;;;;;;;;;5008802;28;20194;-58
2021/12/18 08:04:27;;;;;;;19.40;12.47;;;;;;;;;;5008534;28;20281;-58
2021/12/18 08:06:53;;;;;;;19.07;11.63;;;;;;;;;;5008735;28;20573;-59
2021/12/18 08:09:20;;;;;;;18.37;10.87;;;;;;;;;;4995865;28;20212;-58
2021/12/18 08:11:46;;;;;;;19.83;12.33;;;;;;;;;;4999891;28;20189;-59
2021/12/18 08:14:12;;;;;;;18.00;10.83;;;;;;;;;;5005173;28;20317;-58
2021/12/18 08:16:39;;;;;;;14.13;10.07;;;;;;;;;;5011891;28;20873;-58
2021/12/18 08:19:05;;;;;;;16.00;10.57;;;;;;;;;;4994177;28;20668;-58
2021/12/18 08:21:31;;;;;;;18.60;11.17;;;;;;;;;;5010854;28;20178;-58
2021/12/18 08:23:58;;;;;;;19.37;12.37;;;;;;;;;;4994453;28;20625;-59
2021/12/18 08:26:28;;;;;;;19.50;12.20;;;;;;;;;;4994768;28;20193;-59
2021/12/18 08:28:55;;;;;;;16.77;10.30;;;;;;;;;;4999999;28;20568;-58
2021/12/18 08:31:21;;;;;;;19.07;10.77;;;;;;;;;;4993415;28;20231;-59
2021/12/18 08:33:47;;;;;;;16.47;11.03;;;;;;;;;;4989159;28;20182;-59
2021/12/18 08:36:13;;;;;;;17.70;10.80;;;;;;;;;;4991575;28;20228;-59
2021/12/18 08:38:40;;;;;;;18.77;11.57;;;;;;;;;;4990864;28;20602;-58
2021/12/18 08:41:07;;;;;;;16.10;11.70;;;;;;;;;;5006344;28;20186;-59
2021/12/18 08:43:33;;;;;;;22.03;13.10;;;;;;;;;;4989116;28;21579;-59
2021/12/18 08:46:02;;;;;;;20.43;12.13;;;;;;;;;;5012616;28;20510;-58
2021/12/18 08:48:29;;;;;;;17.20;11.00;;;;;;;;;;4988779;28;20179;-59
2021/12/18 08:50:55;;;;;;;17.47;11.40;;;;;;;;;;4989747;28;20580;-59
2021/12/18 08:53:21;;;;;;;19.73;12.17;;;;;;;;;;4992341;28;20205;-58
2021/12/18 08:55:47;;;;;;;20.10;11.87;;;;;;;;;;5011710;28;20228;-59
2021/12/18 08:58:14;;;;;;;20.73;11.30;;;;;;;;;;5008858;28;20955;-59
2021/12/18 09:00:40;;;;;;;18.60;11.97;;;;;;;;;;5004296;28;20296;-59
2021/12/18 09:03:06;;;;;;;18.00;11.03;;;;;;;;;;4988704;28;20190;-58
2021/12/18 09:05:32;;;;;;;19.87;12.13;;;;;;;;;;5007858;28;20308;-59
2021/12/18 09:07:59;;;;;;;21.70;11.30;;;;;;;;;;5014124;28;20182;-59
2021/12/18 09:10:28;;;;;;;18.70;11.83;;;;;;;;;;4995051;28;20214;-59
2021/12/18 09:12:55;;;;;;;18.53;11.13;;;;;;;;;;4994547;28;20472;-58
2021/12/18 09:15:22;;;;;;;18.70;11.37;;;;;;;;;;4992341;28;20595;-58
2021/12/18 09:17:52;;;;;;;17.87;11.90;;;;;;;;;;5010451;28;20227;-58
2021/12/18 09:20:19;;;;;;;23.07;12.13;;;;;;;;;;5012771;28;20178;-58
2021/12/18 09:22:46;;;;;;;20.90;12.03;;;;;;;;;;5002295;28;20185;-58
2021/12/18 09:25:12;;;;;;;18.73;11.80;;;;;;;;;;4992210;28;20252;-58
2021/12/18 09:27:39;;;;;;;19.00;11.50;;;;;;;;;;4980430;28;20205;-58
2021/12/18 09:30:06;;;;;;;21.93;11.23;;;;;;;;;;4992719;28;20207;-59
2021/12/18 09:32:33;;;;;;;20.63;11.50;;;;;;;;;;4996170;28;20174;-59
2021/12/18 09:34:59;;;;;;;21.40;11.80;;;;;;;;;;4992510;28;20190;-59
2021/12/18 09:37:25;;;;;;;20.53;12.20;;;;;;;;;;4998106;28;20178;-58
2021/12/18 09:39:52;;;;;;;22.17;12.20;;;;;;;;;;4994854;28;20182;-59
2021/12/18 09:42:18;;;;;;;20.57;12.17;;;;;;;;;;5001525;28;20288;-59
2021/12/18 09:44:49;;;;;;;21.37;11.53;;;;;;;;;;4990654;28;20642;-58
2021/12/18 09:47:16;;;;;;;21.60;11.40;;;;;;;;;;4994767;28;20669;-59
2021/12/18 09:49:44;;;;;;;19.27;11.57;;;;;;;;;;4991195;28;20248;-59
2021/12/18 09:52:11;;;;;;;17.37;10.83;;;;;;;;;;4995275;28;20173;-59
2021/12/18 09:54:37;;;;;;;18.83;11.73;;;;;;;;;;4991891;28;20236;-58
2021/12/18 09:57:04;;;;;;;25.20;11.27;;;;;;;;;;5028939;28;20700;-59
2021/12/18 09:59:30;;;;;;;21.37;12.03;;;;;;;;;;5012428;28;20201;-58
2021/12/18 10:01:56;;;;;;;18.00;10.90;;;;;;;;;;5012882;28;20585;-59
2021/12/18 10:04:24;;;;;;;20.57;12.17;;;;;;;;;;5028460;28;20285;-59
2021/12/18 10:06:50;;;;;;;18.77;11.63;;;;;;;;;;5024339;28;20186;-59
2021/12/18 10:09:21;;;;;;;21.27;11.83;;;;;;;;;;5028581;28;20295;-59
2021/12/18 10:11:49;;;;;;;20.10;12.27;;;;;;;;;;5028696;28;20276;-59
2021/12/18 10:14:16;;;;;;;21.30;12.27;;;;;;;;;;4998247;28;20311;-58
2021/12/18 10:16:52;;;;;;;18.20;11.20;;;;;;;;;;5026053;28;20179;-58
2021/12/18 10:19:41;;;;;;;19.83;11.07;;;;;;;;;;5034054;28;20177;-59
2021/12/18 10:22:08;;;;;;;23.03;11.60;;;;;;;;;;5028984;28;20551;-58
2021/12/18 10:24:36;;;;;;;21.37;11.90;;;;;;;;;;5019402;28;20185;-59
2021/12/18 10:27:15;;;;;;;19.87;11.30;;;;;;;;;;5011087;28;20173;-59
2021/12/18 10:29:41;;;;;;;19.03;12.03;;;;;;;;;;5025791;28;20197;-58
2021/12/18 10:32:10;;;;;;;21.20;11.67;;;;;;;;;;5022567;28;20170;-59
2021/12/18 10:34:36;;;;;;;20.63;11.83;;;;;;;;;;5009992;28;20177;-58
2021/12/18 10:37:12;;;;;;;20.30;11.20;;;;;;;;;;5028798;28;20320;-58
2021/12/18 10:39:44;;;;;;;20.70;11.47;;;;;;;;;;5012517;28;20169;-59
2021/12/18 10:42:22;;;;;;;18.97;11.37;;;;;;;;;;5011289;28;20177;-59
2021/12/18 10:45:01;;;;;;;21.37;12.60;;;;;;;;;;5009880;28;21352;-58
2021/12/18 10:47:44;;;;;;;21.53;12.10;;;;;;;;;;5028168;28;20173;-58
2021/12/18 10:50:18;;;;;;;19.47;11.80;;;;;;;;;;5027136;28;20197;-59
2021/12/18 10:52:44;;;;;;;22.87;12.10;;;;;;;;;;5010781;28;20185;-59
2021/12/18 10:55:11;;;;;;;22.57;12.27;;;;;;;;;;5010435;28;20251;-58
2021/12/18 10:57:37;;;;;;;19.67;10.50;;;;;;;;;;5014455;28;20219;-58
2021/12/18 11:00:05;;;;;;;21.50;12.40;;;;;;;;;;5003571;28;20628;-59
2021/12/18 11:02:40;;;;;;;20.13;11.33;;;;;;;;;;4989288;28;20227;-59
2021/12/18 11:05:16;;;;;;;19.73;11.23;;;;;;;;;;4988293;28;20186;-59
2021/12/18 11:07:44;;;;;;;19.00;11.47;;;;;;;;;;4993350;28;20672;-58
2021/12/18 11:10:39;;;;;;;22.00;11.97;;;;;;;;;;4990065;28;20197;-58
2021/12/18 11:15:50;;;;;;;21.60;12.67;;;;;;;;;;5003535;28;20199;-58
2021/12/18 11:18:18;;;;;;;22.43;13.07;;;;;;;;;;5006091;28;20193;-59
2021/12/18 11:20:44;;;;;;;22.70;12.00;;;;;;;;;;5006871;28;20700;-59
2021/12/18 11:23:10;;;;;;;21.03;12.13;;;;;;;;;;5007452;28;20659;-59
2021/12/18 11:25:39;;;;;;;21.27;12.00;;;;;;;;;;5008725;28;20182;-58
2021/12/18 11:28:09;;;;;;;21.97;12.20;;;;;;;;;;4988581;28;20190;-59
2021/12/18 11:30:36;;;;;;;20.27;12.17;;;;;;;;;;5006011;28;20680;-59
2021/12/18 11:33:02;;;;;;;19.90;12.03;;;;;;;;;;5006961;28;20379;-59
2021/12/18 11:35:28;;;;;;;18.17;11.13;;;;;;;;;;5006836;28;20266;-58
2021/12/18 11:37:57;;;;;;;21.57;12.17;;;;;;;;;;4990353;28;20182;-58
2021/12/18 11:40:31;;;;;;;20.07;11.43;;;;;;;;;;5007286;28;20750;-59
2021/12/18 11:42:58;;;;;;;23.50;11.67;;;;;;;;;;5007317;28;20178;-59
2021/12/18 11:45:31;;;;;;;20.20;11.03;;;;;;;;;;4991400;28;20264;-59
2021/12/18 11:47:59;;;;;;;18.40;10.83;;;;;;;;;;5006689;28;20629;-58
2021/12/18 11:50:34;;;;;;;20.87;10.70;;;;;;;;;;5111860;27;20305;-57
2021/12/18 11:53:11;;;;;;;19.27;11.17;;;;;;;;;;5099586;28;20175;-57
2021/12/18 11:55:37;;;;;;;19.10;10.43;;;;;;;;;;5085742;28;20186;-57
2021/12/18 11:58:10;;;;;;;18.33;10.30;;;;;;;;;;5082539;28;20175;-57
2021/12/18 12:00:44;;;;;;;19.50;10.93;;;;;;;;;;5063577;28;20175;-57
2021/12/18 12:03:26;;;;;;;17.43;10.23;;;;;;;;;;5079445;28;20175;-57
2021/12/18 12:05:52;;;;;;;18.33;10.40;;;;;;;;;;5061222;28;20275;-58
2021/12/18 12:08:28;;;;;;;17.93;9.53;;;;;;;;;;5079605;28;20725;-57
2021/12/18 12:11:18;;;;;;;17.90;9.37;;;;;;;;;;5065836;28;20199;-57
2021/12/18 12:13:56;;;;;;;18.27;9.03;;;;;;;;;;5065027;28;20252;-57
2021/12/18 12:16:41;;;;;;;20.30;10.40;;;;;;;;;;5063480;28;20176;-58
2021/12/18 12:19:07;;;;;;;22.33;11.33;;;;;;;;;;5071194;28;20175;-59
2021/12/18 12:21:44;;;;;;;26.23;12.27;;;;;;;;;;5082983;28;20249;-58
2021/12/18 12:24:11;;;;;;;22.93;11.27;;;;;;;;;;5062643;28;20284;-58
2021/12/18 12:26:37;;;;;;;19.53;10.20;;;;;;;;;;5083799;28;20179;-57
2021/12/18 12:29:05;;;;;;;23.83;10.83;;;;;;;;;;5076391;28;20279;-59
2021/12/18 12:31:31;;;;;;;20.20;10.40;;;;;;;;;;5062597;28;20500;-59
2021/12/18 12:34:36;;;;;;;29.07;12.17;;;;;;;;;;5082572;28;20662;-59
2021/12/18 12:37:21;;;;;;;22.83;10.93;;;;;;;;;;4965320;28;20708;-59
2021/12/18 12:39:53;;;;;;;25.17;11.53;;;;;;;;;;4960306;28;20278;-58
2021/12/18 12:42:23;;;;;;;19.43;9.90;;;;;;;;;;5033157;28;20224;-58
2021/12/18 12:45:01;;;;;;;21.10;9.87;;;;;;;;;;5083559;28;20229;-58
2021/12/18 12:47:31;;;;;;;20.97;9.77;;;;;;;;;;5079370;28;20169;-59
2021/12/18 12:50:02;;;;;;;17.90;9.70;;;;;;;;;;5060171;28;20762;-59
2021/12/18 12:52:28;;;;;;;17.97;9.17;;;;;;;;;;5076769;28;20175;-58
2021/12/18 12:54:54;;;;;;;21.03;10.10;;;;;;;;;;5083860;28;20188;-59
2021/12/18 12:57:27;;;;;;;18.87;9.13;;;;;;;;;;5081254;28;20294;-57
2021/12/18 12:59:53;;;;;;;22.57;10.20;;;;;;;;;;5078777;28;20215;-57
2021/12/18 13:02:23;;;;;;;17.23;8.13;;;;;;;;;;5068452;28;20192;-58
2021/12/18 13:04:59;;;;;;;15.47;8.00;;;;;;;;;;5067299;28;20280;-57
2021/12/18 13:07:26;;;;;;;17.13;8.10;;;;;;;;;;5066082;28;20726;-57
2021/12/18 13:09:52;;;;;;;17.10;8.23;;;;;;;;;;5069485;28;20207;-57
2021/12/18 13:12:18;;;;;;;20.92;9.05;;;;;;;;;;5065141;28;20420;-56
2021/12/18 13:14:46;;;;;;;18.50;9.40;;;;;;;;;;5049325;28;20225;-57
2021/12/18 13:17:26;;;;;;;16.23;8.60;;;;;;;;;;5084917;28;20222;-56
2021/12/18 13:20:05;;;;;;;16.07;7.90;;;;;;;;;;5055292;28;20735;-56
2021/12/18 13:22:33;;;;;;;19.00;8.47;;;;;;;;;;5047156;28;20191;-56
2021/12/18 13:25:03;;;;;;;16.27;7.93;;;;;;;;;;5070053;28;20172;-55
2021/12/18 13:27:30;;;;;;;15.43;8.40;;;;;;;;;;5070308;28;20192;-55
2021/12/18 13:30:14;;;;;;;17.67;8.70;;;;;;;;;;5067751;28;20192;-55
2021/12/18 13:33:10;;;;;;;18.40;9.87;;;;;;;;;;5087532;28;20183;-56
2021/12/18 13:35:37;;;;;;;19.87;10.37;;;;;;;;;;5060368;28;20201;-55
2021/12/18 13:38:06;;;;;;;14.00;9.40;;;;;;;;;;5061723;28;20626;-57
2021/12/18 13:40:36;;;;;;;16.90;9.80;;;;;;;;;;5065725;28;20240;-55
2021/12/18 13:43:11;;;;;;;13.93;10.00;;;;;;;;;;5066153;28;20169;-55
2021/12/18 13:45:52;;;;;;;13.73;9.70;;;;;;;;;;5066828;28;20214;-55
2021/12/18 13:48:20;;;;;;;13.50;9.73;;;;;;;;;;5062659;28;20172;-55
2021/12/18 13:50:57;;;;;;;14.13;10.17;;;;;;;;;;5031063;28;20728;-55
2021/12/18 13:53:24;;;;;;;12.27;8.97;;;;;;;;;;5023283;28;20181;-55
2021/12/18 13:55:57;;;;;;;14.90;9.30;;;;;;;;;;5014615;28;20188;-55
2021/12/18 13:58:26;;;;;;;14.33;9.27;;;;;;;;;;5006045;28;20494;-55
2021/12/18 14:01:01;;;;;;;12.20;9.40;;;;;;;;;;5046756;28;20652;-55
2021/12/18 14:03:27;;;;;;;13.07;8.13;;;;;;;;;;5030000;28;20188;-54
2021/12/18 14:05:58;;;;;;;11.63;8.03;;;;;;;;;;5025837;28;20182;-55
2021/12/18 14:08:24;;;;;;;17.63;10.83;;;;;;;;;;5035238;28;20782;-55
2021/12/18 14:10:51;;;;;;;15.97;10.20;;;;;;;;;;5019729;28;20181;-54
2021/12/18 14:13:18;;;;;;;17.57;11.63;;;;;;;;;;5015883;28;20763;-55
2021/12/18 14:15:44;;;;;;;18.17;11.33;;;;;;;;;;5029260;28;20971;-55
2021/12/18 14:18:29;;;;;;;17.47;11.50;;;;;;;;;;5028491;28;20639;-54
2021/12/18 14:20:56;;;;;;;17.50;11.97;;;;;;;;;;5044299;28;20165;-54
2021/12/18 14:23:28;;;;;;;18.97;11.73;;;;;;;;;;5020776;28;20345;-55
2021/12/18 14:26:13;;;;;;;16.17;11.60;;;;;;;;;;5026598;28;20168;-54
2021/12/18 14:28:39;;;;;;;15.27;11.97;;;;;;;;;;5043452;28;20322;-55
2021/12/18 14:31:25;;;;;;;19.07;14.00;;;;;;;;;;5046760;28;20181;-54
2021/12/18 14:34:03;;;;;;;22.90;15.50;;;;;;;;;;5026097;28;20211;-54
2021/12/18 14:36:58;;;;;;;22.67;14.93;;;;;;;;;;5049470;28;20153;-54
2021/12/18 14:39:27;;;;;;;20.73;14.87;;;;;;;;;;5021337;28;20208;-54
2021/12/18 14:42:02;;;;;;;26.10;15.70;;;;;;;;;;5025916;28;20322;-54
2021/12/18 14:44:29;;;;;;;22.67;15.53;;;;;;;;;;5046981;28;20192;-55
2021/12/18 14:47:05;;;;;;;18.20;14.50;;;;;;;;;;5030416;28;20173;-54
2021/12/18 14:49:32;;;;;;;16.93;12.83;;;;;;;;;;5042420;28;20285;-54
2021/12/18 14:52:06;;;;;;;16.40;11.03;;;;;;;;;;5024546;28;20246;-55
2021/12/18 14:54:49;;;;;;;19.50;13.80;;;;;;;;;;5024872;28;20185;-55
2021/12/18 14:57:16;;;;;;;24.87;17.63;;;;;;;;;;5006575;28;20565;-55
2021/12/18 14:59:42;;;;;;;29.70;19.77;;;;;;;;;;5043570;28;20590;-54
2021/12/18 15:02:09;;;;;;;29.27;21.40;;;;;;;;;;5029691;28;20179;-54
2021/12/18 15:04:41;;;;;;;30.60;22.57;;;;;;;;;;5022266;28;20558;-57
2021/12/18 15:07:25;;;;;;;34.17;21.07;;;;;;;;;;5025316;28;20177;-57
2021/12/18 15:09:56;;;;;;;29.93;20.03;;;;;;;;;;5022418;28;20197;-57
2021/12/18 15:12:24;;;;;;;31.73;20.97;;;;;;;;;;5023550;28;20181;-57
2021/12/18 15:14:51;;;;;;;28.23;18.97;;;;;;;;;;5023120;28;20713;-56
2021/12/18 15:17:17;;;;;;;29.80;20.53;;;;;;;;;;5043661;28;20181;-57
2021/12/18 15:19:43;;;;;;;28.33;18.63;;;;;;;;;;5041369;28;20196;-57
2021/12/18 15:22:13;;;;;;;25.30;18.70;;;;;;;;;;5022619;28;20212;-57